| time (UTC) | temp C | wind direction | speed KPH | gust KPH | rain 1hr cm | rain 24hr cm | rain mn cm | humidity % | barometer mb |
| 20260507075209 | 8 | 46 | 1.6 | 4.8 | 0.00 | 3.78 | 3.78 | 94 | 1011.1 |
| 20260507073207 | 8 | 20 | 3.2 | 9.7 | 0.00 | 3.78 | 3.78 | 94 | 1010.9 |
| 20260507072211 | 8 | 38 | 3.2 | 9.7 | 0.00 | 3.78 | 3.78 | 94 | 1010.8 |
| 20260507071212 | 8 | 56 | 3.2 | 6.4 | 0.00 | 3.78 | 3.78 | 94 | 1010.7 |
| 20260507070215 | 8 | 29 | 4.8 | 12.9 | 0.00 | 3.78 | 3.78 | 94 | 1010.6 |
| 20260507065213 | 8 | 28 | 3.2 | 9.7 | 0.00 | 3.78 | 3.78 | 94 | 1010.5 |
| 20260507064206 | 8 | 48 | 1.6 | 4.8 | 0.00 | 3.78 | 3.78 | 94 | 1010.5 |
| 20260507063210 | 8 | 39 | 3.2 | 9.7 | 0.00 | 3.78 | 3.78 | 94 | 1010.4 |
| 20260507062215 | 8 | 55 | 3.2 | 9.7 | 0.00 | 3.78 | 3.78 | 94 | 1010.4 |
| 20260507061215 | 8 | 71 | 3.2 | 9.7 | 0.00 | 3.78 | 3.78 | 94 | 1010.3 |
| 20260507060211 | 8 | 73 | 3.2 | 9.7 | 0.00 | 3.78 | 3.78 | 94 | 1010.2 |
| 20260507055213 | 8 | 84 | 1.6 | 4.8 | 0.03 | 3.78 | 3.78 | 94 | 1010.1 |
| 20260507053210 | 8 | 70 | 3.2 | 9.7 | 0.05 | 3.78 | 3.78 | 95 | 1009.7 |
| 20260507052214 | 8 | 69 | 3.2 | 6.4 | 0.10 | 3.78 | 3.78 | 95 | 1009.4 |
| 20260507051217 | 8 | 70 | 8.0 | 17.7 | 0.18 | 3.76 | 3.76 | 95 | 1009.6 |
| 20260507045210 | 8 | 45 | 3.2 | 9.7 | 0.23 | 3.76 | 3.76 | 95 | 1009.4 |
| 20260507044214 | 8 | 70 | 3.2 | 9.7 | 0.20 | 3.73 | 3.73 | 94 | 1009.4 |
| 20260507042211 | 8 | 45 | 1.6 | 4.8 | 0.15 | 3.66 | 3.66 | 94 | 1009.4 |
| 20260507041214 | 8 | 33 | 4.8 | 9.7 | 0.08 | 3.61 | 3.61 | 94 | 1009.2 |
| 20260507040207 | 8 | 358 | 0.0 | 4.8 | 0.08 | 3.58 | 3.58 | 94 | 1009.1 |
| 20260507035210 | 8 | 32 | 1.6 | 9.7 | 0.03 | 3.53 | 3.53 | 94 | 1009.0 |
| 20260507034213 | 8 | 35 | 3.2 | 9.7 | 0.03 | 3.53 | 3.53 | 94 | 1009.0 |
| 20260507033211 | 8 | 35 | 3.2 | 9.7 | 0.03 | 3.53 | 3.53 | 94 | 1008.9 |
| 20260507032212 | 8 | 22 | 3.2 | 9.7 | 0.03 | 3.53 | 3.53 | 94 | 1009.0 |
| 20260507030206 | 8 | 16 | 4.8 | 14.5 | 0.03 | 3.53 | 3.53 | 94 | 1008.9 |
| 20260507025210 | 8 | 17 | 6.4 | 12.9 | 0.03 | 3.51 | 3.51 | 94 | 1008.9 |
| 20260507024218 | 8 | 4 | 4.8 | 11.3 | 0.05 | 3.51 | 3.51 | 94 | 1008.8 |
| 20260507023207 | 9 | 340 | 6.4 | 12.9 | 0.15 | 3.51 | 3.51 | 94 | 1008.8 |
| 20260507022210 | 9 | 352 | 6.4 | 17.7 | 0.33 | 3.51 | 3.51 | 94 | 1008.6 |
| 20260507021213 | 9 | 4 | 6.4 | 12.9 | 0.43 | 3.51 | 3.51 | 94 | 1008.5 |
| 20260507020207 | 10 | 5 | 8.0 | 14.5 | 0.56 | 3.51 | 3.51 | 94 | 1008.5 |
| 20260507015210 | 10 | 14 | 8.0 | 20.9 | 0.66 | 3.48 | 3.48 | 94 | 1008.4 |
| 20260507014213 | 10 | 349 | 9.7 | 24.1 | 0.71 | 3.43 | 3.43 | 94 | 1008.1 |
| 20260507012210 | 10 | 310 | 3.2 | 6.4 | 0.74 | 3.17 | 3.17 | 93 | 1008.6 |
| 20260507010207 | 10 | 357 | 4.8 | 9.7 | 0.99 | 2.97 | 2.95 | 93 | 1007.9 |
| 20260507005210 | 10 | 14 | 4.8 | 9.7 | 1.04 | 2.84 | 2.84 | 93 | 1007.8 |
| 20260507004214 | 10 | 20 | 4.8 | 9.7 | 1.14 | 2.79 | 2.74 | 93 | 1007.7 |
| 20260507003207 | 10 | 2 | 3.2 | 11.3 | 1.12 | 2.59 | 2.54 | 93 | 1007.6 |
| 20260507002213 | 10 | 27 | 3.2 | 11.3 | 1.24 | 2.54 | 2.44 | 93 | 1007.6 |
| 20260507001216 | 10 | 23 | 6.4 | 14.5 | 1.17 | 2.31 | 2.16 | 93 | 1007.6 |
| 20260507000207 | 10 | 21 | 3.2 | 12.9 | 1.24 | 2.16 | 1.98 | 93 | 1007.7 |
| 20260506235210 | 10 | 45 | 4.8 | 11.3 | 1.40 | 2.01 | 1.80 | 93 | 1007.4 |
| 20260506234213 | 11 | 48 | 4.8 | 14.5 | 1.32 | 1.78 | 1.60 | 92 | 1007.5 |
| 20260506233211 | 11 | 41 | 4.8 | 11.3 | 1.19 | 1.60 | 1.40 | 92 | 1007.6 |
| 20260506232209 | 11 | 43 | 6.4 | 16.1 | 1.04 | 1.45 | 1.17 | 92 | 1007.6 |
| 20260506230216 | 11 | 36 | 4.8 | 12.9 | 0.71 | 1.70 | 0.71 | 90 | 1007.7 |
| 20260506225209 | 11 | 59 | 3.2 | 11.3 | 0.43 | 1.45 | 0.43 | 90 | 1007.7 |
| 20260506224212 | 11 | 36 | 3.2 | 11.3 | 0.28 | 1.32 | 0.28 | 90 | 1007.7 |
| 20260506222214 | 11 | 22 | 6.4 | 12.9 | 0.15 | 1.19 | 0.15 | 89 | 1007.7 |
| 20260506221211 | 12 | 353 | 6.4 | 12.9 | 0.05 | 1.12 | 0.05 | 88 | 1007.6 |
| 20260506220214 | 12 | 356 | 6.4 | 12.9 | 0.00 | 1.04 | 1.04 | 88 | 1007.5 |
| 20260506215208 | 12 | 6 | 6.4 | 14.5 | 0.00 | 1.04 | 1.04 | 88 | 1007.6 |
| 20260506214210 | 12 | 43 | 4.8 | 14.5 | 0.00 | 1.04 | 1.04 | 87 | 1007.4 |
| 20260506213214 | 12 | 51 | 4.8 | 20.9 | 0.00 | 1.04 | 1.04 | 87 | 1007.4 |
| 20260506212212 | 12 | 41 | 4.8 | 12.9 | 0.00 | 1.04 | 1.04 | 86 | 1007.4 |
| 20260506211211 | 12 | 26 | 3.2 | 11.3 | 0.00 | 1.04 | 1.04 | 86 | 1007.3 |
| 20260506210213 | 12 | 42 | 3.2 | 11.3 | 0.00 | 1.04 | 1.04 | 86 | 1007.3 |
| 20260506205207 | 12 | 41 | 8.0 | 16.1 | 0.00 | 1.04 | 1.04 | 86 | 1007.3 |
| 20260506204209 | 12 | 43 | 6.4 | 12.9 | 0.00 | 1.04 | 1.04 | 86 | 1007.5 |
| 20260506203213 | 13 | 40 | 4.8 | 11.3 | 0.00 | 1.04 | 1.04 | 86 | 1007.4 |
| 20260506202206 | 13 | 58 | 8.0 | 17.7 | 0.00 | 1.04 | 1.04 | 86 | 1007.3 |
| 20260506201209 | 13 | 63 | 4.8 | 11.3 | 0.00 | 1.04 | 1.04 | 85 | 1007.3 |
| 20260506200212 | 13 | 66 | 4.8 | 12.9 | 0.00 | 1.04 | 1.04 | 84 | 1007.2 |
| 20260506195215 | 13 | 60 | 3.2 | 11.3 | 0.00 | 1.04 | 1.04 | 84 | 1007.1 |
| 20260506194208 | 13 | 44 | 6.4 | 17.7 | 0.00 | 1.04 | 1.04 | 83 | 1006.9 |
| 20260506193211 | 13 | 43 | 6.4 | 14.5 | 0.00 | 1.04 | 1.04 | 82 | 1006.9 |
| 20260506192216 | 14 | 47 | 3.2 | 12.9 | 0.00 | 1.04 | 1.04 | 81 | 1007.0 |
| 20260506190210 | 15 | 9 | 6.4 | 12.9 | 0.00 | 1.04 | 1.04 | 79 | 1006.7 |
| 20260506185220 | 15 | 6 | 8.0 | 14.5 | 0.00 | 1.04 | 1.04 | 78 | 1006.7 |
| 20260506184206 | 15 | 5 | 9.7 | 17.7 | 0.00 | 1.04 | 1.04 | 77 | 1006.5 |
| 20260506183212 | 16 | 19 | 6.4 | 17.7 | 0.00 | 1.04 | 1.04 | 76 | 1006.4 |
| 20260506182213 | 16 | 10 | 6.4 | 17.7 | 0.00 | 1.04 | 1.04 | 75 | 1006.3 |
| 20260506181206 | 16 | 13 | 8.0 | 16.1 | 0.00 | 1.04 | 1.04 | 75 | 1006.3 |
| 20260506180210 | 16 | 12 | 9.7 | 17.7 | 0.00 | 1.04 | 1.04 | 74 | 1006.0 |
| 20260506175215 | 17 | 351 | 6.4 | 11.3 | 0.00 | 1.04 | 1.04 | 73 | 1006.0 |
| 20260506174206 | 17 | 3 | 6.4 | 12.9 | 0.00 | 1.04 | 1.04 | 71 | 1005.7 |
| 20260506173209 | 17 | 19 | 4.8 | 12.9 | 0.00 | 1.04 | 1.04 | 70 | 1005.6 |
| 20260506172212 | 17 | 10 | 9.7 | 16.1 | 0.00 | 1.04 | 1.04 | 69 | 1005.6 |
| 20260506170208 | 18 | 6 | 6.4 | 11.3 | 0.00 | 1.04 | 1.04 | 68 | 1005.8 |
| 20260506165212 | 18 | 4 | 6.4 | 12.9 | 0.00 | 1.04 | 1.04 | 67 | 1005.6 |
| 20260506164215 | 18 | 347 | 6.4 | 14.5 | 0.00 | 1.04 | 1.04 | 66 | 1005.6 |
| 20260506163208 | 19 | 0 | 6.4 | 12.9 | 0.00 | 1.04 | 1.04 | 64 | 1005.6 |
| 20260506162212 | 19 | 345 | 4.8 | 11.3 | 0.00 | 1.04 | 1.04 | 62 | 1005.6 |
| 20260506161215 | 20 | 319 | 4.8 | 11.3 | 0.00 | 1.04 | 1.04 | 61 | 1005.7 |
| 20260506160208 | 20 | 341 | 1.6 | 6.4 | 0.00 | 1.04 | 1.04 | 60 | 1005.7 |
| 20260506155211 | 20 | 328 | 1.6 | 6.4 | 0.00 | 1.04 | 1.04 | 58 | 1005.8 |
| 20260506154215 | 21 | 314 | 1.6 | 4.8 | 0.00 | 1.04 | 1.04 | 58 | 1005.8 |
| 20260506153208 | 21 | 5 | 4.8 | 9.7 | 0.00 | 1.04 | 1.04 | 56 | 1005.9 |
| 20260506152211 | 22 | 331 | 4.8 | 11.3 | 0.00 | 1.04 | 1.04 | 56 | 1005.9 |
| 20260506151214 | 22 | 326 | 6.4 | 14.5 | 0.00 | 1.04 | 1.04 | 56 | 1006.0 |
| 20260506150208 | 22 | 329 | 3.2 | 6.4 | 0.00 | 1.04 | 1.04 | 55 | 1005.9 |
| 20260506145211 | 22 | 318 | 6.4 | 16.1 | 0.00 | 1.04 | 1.04 | 54 | 1006.0 |
| 20260506144214 | 22 | 267 | 3.2 | 9.7 | 0.00 | 1.04 | 1.04 | 54 | 1005.9 |
| 20260506143207 | 22 | 281 | 1.6 | 4.8 | 0.00 | 1.04 | 1.04 | 55 | 1006.1 |
| 20260506140207 | 21 | 287 | 8.0 | 14.5 | 0.00 | 1.04 | 1.04 | 57 | 1006.2 |
| 20260506135210 | 21 | 334 | 8.0 | 14.5 | 0.00 | 1.04 | 1.04 | 58 | 1006.1 |
| 20260506134214 | 21 | 294 | 6.4 | 14.5 | 0.00 | 1.04 | 1.04 | 58 | 1006.3 |
| 20260506133207 | 21 | 308 | 8.0 | 20.9 | 0.00 | 1.04 | 1.04 | 56 | 1006.2 |
| 20260506132213 | 21 | 248 | 9.7 | 22.5 | 0.00 | 1.04 | 1.04 | 54 | 1006.2 |
| 20260506130207 | 21 | 241 | 11.3 | 25.7 | 0.00 | 1.04 | 1.04 | 56 | 1006.2 |
| 20260506125211 | 21 | 242 | 9.7 | 20.9 | 0.00 | 1.04 | 1.04 | 57 | 1006.2 |
| 20260506124219 | 21 | 239 | 9.7 | 17.7 | 0.00 | 1.04 | 1.04 | 56 | 1006.4 |
| 20260506123209 | 21 | 260 | 6.4 | 17.7 | 0.00 | 1.04 | 1.04 | 62 | 1006.4 |
| 20260506122210 | 20 | 240 | 8.0 | 17.7 | 0.00 | 1.04 | 1.04 | 63 | 1006.4 |
| 20260506121213 | 18 | 239 | 6.4 | 17.7 | 0.00 | 1.04 | 1.04 | 64 | 1006.4 |
| 20260506120209 | 18 | 253 | 6.4 | 12.9 | 0.00 | 1.04 | 1.04 | 64 | 1006.4 |
| 20260506115210 | 18 | 273 | 8.0 | 17.7 | 0.00 | 1.04 | 1.04 | 65 | 1006.5 |
| 20260506114213 | 18 | 274 | 8.0 | 16.1 | 0.00 | 1.04 | 1.04 | 63 | 1006.4 |
| 20260506113206 | 18 | 261 | 11.3 | 25.7 | 0.00 | 1.04 | 1.04 | 63 | 1006.4 |
| 20260506111213 | 19 | 264 | 12.9 | 24.1 | 0.00 | 1.04 | 1.04 | 64 | 1006.3 |
| 20260506105209 | 20 | 245 | 11.3 | 29.0 | 0.00 | 1.04 | 1.04 | 63 | 1006.3 |
| 20260506104212 | 20 | 243 | 12.9 | 22.5 | 0.00 | 1.04 | 1.04 | 63 | 1006.3 |
| 20260506103216 | 19 | 220 | 9.7 | 20.9 | 0.00 | 1.04 | 1.04 | 67 | 1006.3 |
| 20260506102208 | 18 | 253 | 11.3 | 24.1 | 0.00 | 1.04 | 1.04 | 67 | 1006.4 |
| 20260506101212 | 18 | 226 | 9.7 | 25.7 | 0.00 | 1.04 | 1.04 | 68 | 1006.4 |
| 20260506095208 | 18 | 236 | 11.3 | 29.0 | 0.00 | 1.04 | 1.04 | 71 | 1006.3 |
| 20260506094211 | 17 | 223 | 11.3 | 33.8 | 0.00 | 1.04 | 1.04 | 71 | 1006.2 |
| 20260506092213 | 18 | 216 | 8.0 | 17.7 | 0.00 | 1.04 | 1.04 | 67 | 1006.0 |
| 20260506091213 | 18 | 240 | 9.7 | 35.4 | 0.00 | 1.04 | 1.04 | 67 | 1005.9 |
| 20260506090214 | 18 | 238 | 11.3 | 27.4 | 0.00 | 1.04 | 1.04 | 69 | 1005.9 |
| 20260506085207 | 18 | 238 | 8.0 | 20.9 | 0.00 | 1.04 | 1.04 | 69 | 1005.8 |
| 20260506084210 | 18 | 248 | 8.0 | 24.1 | 0.00 | 1.04 | 1.04 | 70 | 1005.7 |
| 20260506083214 | 18 | 228 | 9.7 | 24.1 | 0.00 | 1.04 | 1.04 | 71 | 1005.6 |
| 20260506082206 | 18 | 243 | 9.7 | 27.4 | 0.00 | 1.04 | 1.04 | 72 | 1005.4 |
| 20260506081210 | 17 | 239 | 8.0 | 17.7 | 0.00 | 1.04 | 1.04 | 73 | 1005.4 |
| 20260506080213 | 17 | 245 | 8.0 | 22.5 | 0.00 | 1.04 | 1.04 | 75 | 1005.6 |